sensor_id;sensor_type;location;lat;lon;timestamp;temperature;humidity
24252;DHT22;12380;51.118;4.176;2023-02-21T00:00:59;8.30;99.90
24252;DHT22;12380;51.118;4.176;2023-02-21T00:03:43;8.20;99.90
24252;DHT22;12380;51.118;4.176;2023-02-21T00:06:28;8.20;99.90
24252;DHT22;12380;51.118;4.176;2023-02-21T00:09:12;8.20;99.90
24252;DHT22;12380;51.118;4.176;2023-02-21T00:11:59;8.20;99.90
24252;DHT22;12380;51.118;4.176;2023-02-21T00:14:43;8.40;99.90
24252;DHT22;12380;51.118;4.176;2023-02-21T00:17:27;8.40;99.90
24252;DHT22;12380;51.118;4.176;2023-02-21T00:20:12;8.40;99.90
24252;DHT22;12380;51.118;4.176;2023-02-21T00:22:56;8.20;99.90
24252;DHT22;12380;51.118;4.176;2023-02-21T00:25:42;8.10;99.90
24252;DHT22;12380;51.118;4.176;2023-02-21T00:28:27;8.00;99.90
24252;DHT22;12380;51.118;4.176;2023-02-21T00:31:11;8.10;99.90
24252;DHT22;12380;51.118;4.176;2023-02-21T00:33:55;8.10;99.90
24252;DHT22;12380;51.118;4.176;2023-02-21T00:36:39;8.10;99.90
24252;DHT22;12380;51.118;4.176;2023-02-21T00:39:23;8.20;99.90
24252;DHT22;12380;51.118;4.176;2023-02-21T00:42:08;8.10;99.90
24252;DHT22;12380;51.118;4.176;2023-02-21T00:44:52;8.00;99.90
24252;DHT22;12380;51.118;4.176;2023-02-21T00:47:36;8.10;99.90
24252;DHT22;12380;51.118;4.176;2023-02-21T00:50:22;8.20;99.90
24252;DHT22;12380;51.118;4.176;2023-02-21T00:53:07;8.20;99.90
24252;DHT22;12380;51.118;4.176;2023-02-21T00:55:51;8.00;99.90
24252;DHT22;12380;51.118;4.176;2023-02-21T00:58:35;8.00;99.90
24252;DHT22;12380;51.118;4.176;2023-02-21T01:01:19;8.00;99.90
24252;DHT22;12380;51.118;4.176;2023-02-21T01:04:04;8.00;99.90
24252;DHT22;12380;51.118;4.176;2023-02-21T01:06:49;7.90;99.90
24252;DHT22;12380;51.118;4.176;2023-02-21T01:09:34;8.00;99.90
24252;DHT22;12380;51.118;4.176;2023-02-21T01:12:18;7.90;99.90
24252;DHT22;12380;51.118;4.176;2023-02-21T01:15:02;8.00;99.90
24252;DHT22;12380;51.118;4.176;2023-02-21T01:17:46;8.00;99.90
24252;DHT22;12380;51.118;4.176;2023-02-21T01:20:33;8.00;99.90
24252;DHT22;12380;51.118;4.176;2023-02-21T01:23:17;8.10;99.90
24252;DHT22;12380;51.118;4.176;2023-02-21T01:26:01;8.10;99.90
24252;DHT22;12380;51.118;4.176;2023-02-21T01:28:47;8.00;99.90
24252;DHT22;12380;51.118;4.176;2023-02-21T01:31:31;8.00;99.90
24252;DHT22;12380;51.118;4.176;2023-02-21T01:34:17;7.90;99.90
24252;DHT22;12380;51.118;4.176;2023-02-21T01:37:04;7.90;99.90
24252;DHT22;12380;51.118;4.176;2023-02-21T01:39:48;7.90;99.90
24252;DHT22;12380;51.118;4.176;2023-02-21T01:42:33;7.90;99.90
24252;DHT22;12380;51.118;4.176;2023-02-21T01:48:12;8.10;99.90
24252;DHT22;12380;51.118;4.176;2023-02-21T01:50:58;8.00;99.90
24252;DHT22;12380;51.118;4.176;2023-02-21T01:53:43;8.00;99.90
24252;DHT22;12380;51.118;4.176;2023-02-21T01:56:29;7.90;99.90
24252;DHT22;12380;51.118;4.176;2023-02-21T01:59:15;7.90;99.90
24252;DHT22;12380;51.118;4.176;2023-02-21T02:02:12;7.90;99.90
24252;DHT22;12380;51.118;4.176;2023-02-21T02:05:00;7.90;99.90
24252;DHT22;12380;51.118;4.176;2023-02-21T02:07:44;8.00;99.90
24252;DHT22;12380;51.118;4.176;2023-02-21T02:10:28;7.90;99.90
24252;DHT22;12380;51.118;4.176;2023-02-21T02:16:01;8.00;99.90
24252;DHT22;12380;51.118;4.176;2023-02-21T02:37:13;7.70;99.90
24252;DHT22;12380;51.118;4.176;2023-02-21T02:40:06;7.70;99.90
24252;DHT22;12380;51.118;4.176;2023-02-21T02:48:29;7.70;99.90
24252;DHT22;12380;51.118;4.176;2023-02-21T02:51:03;7.70;99.90
24252;DHT22;12380;51.118;4.176;2023-02-21T02:53:31;7.80;99.90
24252;DHT22;12380;51.118;4.176;2023-02-21T02:55:59;7.80;99.90
24252;DHT22;12380;51.118;4.176;2023-02-21T02:58:30;7.90;99.90
24252;DHT22;12380;51.118;4.176;2023-02-21T03:12:26;7.80;99.90
24252;DHT22;12380;51.118;4.176;2023-02-21T03:15:06;7.70;99.90
24252;DHT22;12380;51.118;4.176;2023-02-21T03:17:39;7.80;99.90
24252;DHT22;12380;51.118;4.176;2023-02-21T03:20:07;7.80;99.90
24252;DHT22;12380;51.118;4.176;2023-02-21T03:22:34;7.80;99.90
24252;DHT22;12380;51.118;4.176;2023-02-21T03:25:01;7.80;99.90
24252;DHT22;12380;51.118;4.176;2023-02-21T03:27:29;7.80;99.90
24252;DHT22;12380;51.118;4.176;2023-02-21T03:30:01;7.90;99.90
24252;DHT22;12380;51.118;4.176;2023-02-21T03:32:31;7.80;99.90
24252;DHT22;12380;51.118;4.176;2023-02-21T03:34:58;7.70;99.90
24252;DHT22;12380;51.118;4.176;2023-02-21T03:37:32;7.90;99.90
24252;DHT22;12380;51.118;4.176;2023-02-21T03:39:58;7.80;99.90
24252;DHT22;12380;51.118;4.176;2023-02-21T03:42:24;7.70;99.90
24252;DHT22;12380;51.118;4.176;2023-02-21T03:44:50;7.60;99.90
24252;DHT22;12380;51.118;4.176;2023-02-21T03:47:16;7.70;99.90
24252;DHT22;12380;51.118;4.176;2023-02-21T03:49:42;7.80;99.90
24252;DHT22;12380;51.118;4.176;2023-02-21T03:52:10;8.00;99.90
24252;DHT22;12380;51.118;4.176;2023-02-21T03:54:39;7.80;99.90
24252;DHT22;12380;51.118;4.176;2023-02-21T03:57:05;7.80;99.90
24252;DHT22;12380;51.118;4.176;2023-02-21T03:59:31;7.90;99.90
24252;DHT22;12380;51.118;4.176;2023-02-21T04:01:56;7.80;99.90
24252;DHT22;12380;51.118;4.176;2023-02-21T04:04:22;7.70;99.90
24252;DHT22;12380;51.118;4.176;2023-02-21T04:06:50;7.70;99.90
24252;DHT22;12380;51.118;4.176;2023-02-21T04:09:16;7.70;99.90
24252;DHT22;12380;51.118;4.176;2023-02-21T04:11:43;7.70;99.90
24252;DHT22;12380;51.118;4.176;2023-02-21T04:14:09;7.60;99.90
24252;DHT22;12380;51.118;4.176;2023-02-21T04:16:35;7.60;99.90
24252;DHT22;12380;51.118;4.176;2023-02-21T04:19:01;7.50;99.90
24252;DHT22;12380;51.118;4.176;2023-02-21T04:21:28;7.60;99.90
24252;DHT22;12380;51.118;4.176;2023-02-21T04:23:54;7.60;99.90
24252;DHT22;12380;51.118;4.176;2023-02-21T04:26:20;7.60;99.90
24252;DHT22;12380;51.118;4.176;2023-02-21T04:28:49;7.60;99.90
24252;DHT22;12380;51.118;4.176;2023-02-21T04:31:16;7.60;99.90
24252;DHT22;12380;51.118;4.176;2023-02-21T04:33:42;7.70;99.90
24252;DHT22;12380;51.118;4.176;2023-02-21T04:36:08;7.60;99.90
24252;DHT22;12380;51.118;4.176;2023-02-21T04:38:34;7.70;99.90
24252;DHT22;12380;51.118;4.176;2023-02-21T04:41:03;7.80;99.90
24252;DHT22;12380;51.118;4.176;2023-02-21T04:43:29;7.80;99.90
24252;DHT22;12380;51.118;4.176;2023-02-21T04:45:58;7.80;99.90
24252;DHT22;12380;51.118;4.176;2023-02-21T04:48:24;7.60;99.90
24252;DHT22;12380;51.118;4.176;2023-02-21T04:50:52;7.60;99.90
24252;DHT22;12380;51.118;4.176;2023-02-21T04:53:18;7.70;99.90
24252;DHT22;12380;51.118;4.176;2023-02-21T04:55:44;7.70;99.90
24252;DHT22;12380;51.118;4.176;2023-02-21T04:58:09;7.70;99.90
24252;DHT22;12380;51.118;4.176;2023-02-21T05:00:35;7.80;99.90
24252;DHT22;12380;51.118;4.176;2023-02-21T05:03:08;7.80;99.90
24252;DHT22;12380;51.118;4.176;2023-02-21T05:05:33;7.90;99.90
24252;DHT22;12380;51.118;4.176;2023-02-21T05:07:59;7.70;99.90
24252;DHT22;12380;51.118;4.176;2023-02-21T05:10:25;7.70;99.90
24252;DHT22;12380;51.118;4.176;2023-02-21T05:12:53;7.70;99.90
24252;DHT22;12380;51.118;4.176;2023-02-21T05:15:18;7.70;99.90
24252;DHT22;12380;51.118;4.176;2023-02-21T05:17:44;7.80;99.90
24252;DHT22;12380;51.118;4.176;2023-02-21T05:20:10;7.70;99.90
24252;DHT22;12380;51.118;4.176;2023-02-21T05:22:40;7.80;99.90
24252;DHT22;12380;51.118;4.176;2023-02-21T05:25:21;7.80;99.90
24252;DHT22;12380;51.118;4.176;2023-02-21T05:27:48;7.70;99.90
24252;DHT22;12380;51.118;4.176;2023-02-21T05:30:16;7.70;99.90
24252;DHT22;12380;51.118;4.176;2023-02-21T05:32:42;7.60;99.90
24252;DHT22;12380;51.118;4.176;2023-02-21T05:35:09;7.70;99.90
24252;DHT22;12380;51.118;4.176;2023-02-21T05:37:34;7.60;99.90
24252;DHT22;12380;51.118;4.176;2023-02-21T05:40:03;7.60;99.90
24252;DHT22;12380;51.118;4.176;2023-02-21T05:42:31;7.70;99.90
24252;DHT22;12380;51.118;4.176;2023-02-21T05:44:57;7.60;99.90
24252;DHT22;12380;51.118;4.176;2023-02-21T05:47:24;7.60;99.90
24252;DHT22;12380;51.118;4.176;2023-02-21T05:49:49;7.60;99.90
24252;DHT22;12380;51.118;4.176;2023-02-21T05:52:16;7.50;99.90
24252;DHT22;12380;51.118;4.176;2023-02-21T05:54:43;7.50;99.90
24252;DHT22;12380;51.118;4.176;2023-02-21T05:57:11;7.40;99.90
24252;DHT22;12380;51.118;4.176;2023-02-21T05:59:37;7.40;99.90
24252;DHT22;12380;51.118;4.176;2023-02-21T06:02:06;7.50;99.90
24252;DHT22;12380;51.118;4.176;2023-02-21T06:04:34;7.50;99.90
24252;DHT22;12380;51.118;4.176;2023-02-21T06:06:59;7.50;99.90
24252;DHT22;12380;51.118;4.176;2023-02-21T06:09:25;7.40;99.90
24252;DHT22;12380;51.118;4.176;2023-02-21T06:11:54;7.40;99.90
24252;DHT22;12380;51.118;4.176;2023-02-21T06:14:20;7.50;99.90
24252;DHT22;12380;51.118;4.176;2023-02-21T06:16:47;7.40;99.90
24252;DHT22;12380;51.118;4.176;2023-02-21T06:19:13;7.30;99.90
24252;DHT22;12380;51.118;4.176;2023-02-21T06:21:41;7.40;99.90
24252;DHT22;12380;51.118;4.176;2023-02-21T06:24:08;7.30;99.90
24252;DHT22;12380;51.118;4.176;2023-02-21T06:26:36;7.30;99.90
24252;DHT22;12380;51.118;4.176;2023-02-21T06:29:06;7.30;99.90
24252;DHT22;12380;51.118;4.176;2023-02-21T06:31:34;7.40;99.90
24252;DHT22;12380;51.118;4.176;2023-02-21T06:34:00;7.40;99.90
24252;DHT22;12380;51.118;4.176;2023-02-21T06:36:27;7.30;99.90
24252;DHT22;12380;51.118;4.176;2023-02-21T06:38:56;7.30;99.90
24252;DHT22;12380;51.118;4.176;2023-02-21T06:41:28;7.30;99.90
24252;DHT22;12380;51.118;4.176;2023-02-21T06:43:57;7.30;99.90
24252;DHT22;12380;51.118;4.176;2023-02-21T06:46:25;7.40;99.90
24252;DHT22;12380;51.118;4.176;2023-02-21T06:48:52;7.40;99.90
24252;DHT22;12380;51.118;4.176;2023-02-21T06:51:17;7.40;99.90
24252;DHT22;12380;51.118;4.176;2023-02-21T06:53:46;7.30;99.90
24252;DHT22;12380;51.118;4.176;2023-02-21T06:56:13;7.30;99.90
24252;DHT22;12380;51.118;4.176;2023-02-21T06:58:38;7.20;99.90
24252;DHT22;12380;51.118;4.176;2023-02-21T07:01:04;7.30;99.90
24252;DHT22;12380;51.118;4.176;2023-02-21T07:03:30;7.40;99.90
24252;DHT22;12380;51.118;4.176;2023-02-21T07:05:56;7.40;99.90
24252;DHT22;12380;51.118;4.176;2023-02-21T07:08:21;7.40;99.90
24252;DHT22;12380;51.118;4.176;2023-02-21T07:10:47;7.40;99.90
24252;DHT22;12380;51.118;4.176;2023-02-21T07:13:13;7.40;99.90
24252;DHT22;12380;51.118;4.176;2023-02-21T07:15:39;7.50;99.90
24252;DHT22;12380;51.118;4.176;2023-02-21T07:18:05;7.40;99.90
24252;DHT22;12380;51.118;4.176;2023-02-21T07:20:30;7.40;99.90
24252;DHT22;12380;51.118;4.176;2023-02-21T07:22:58;7.30;99.90
24252;DHT22;12380;51.118;4.176;2023-02-21T07:25:26;7.40;99.90
24252;DHT22;12380;51.118;4.176;2023-02-21T07:27:54;7.40;99.90
24252;DHT22;12380;51.118;4.176;2023-02-21T07:30:23;7.40;99.90
24252;DHT22;12380;51.118;4.176;2023-02-21T07:32:48;7.50;99.90
24252;DHT22;12380;51.118;4.176;2023-02-21T07:35:14;7.50;99.90
24252;DHT22;12380;51.118;4.176;2023-02-21T07:37:40;7.60;99.90
24252;DHT22;12380;51.118;4.176;2023-02-21T07:40:06;7.50;99.90
24252;DHT22;12380;51.118;4.176;2023-02-21T07:42:32;7.40;99.90
24252;DHT22;12380;51.118;4.176;2023-02-21T07:45:00;7.40;99.90
24252;DHT22;12380;51.118;4.176;2023-02-21T07:47:26;7.50;99.90
24252;DHT22;12380;51.118;4.176;2023-02-21T07:49:53;7.40;99.90
24252;DHT22;12380;51.118;4.176;2023-02-21T07:52:20;7.40;99.90
24252;DHT22;12380;51.118;4.176;2023-02-21T07:54:46;7.40;99.90
24252;DHT22;12380;51.118;4.176;2023-02-21T07:57:12;7.30;99.90
24252;DHT22;12380;51.118;4.176;2023-02-21T07:59:39;7.40;99.90
24252;DHT22;12380;51.118;4.176;2023-02-21T08:02:06;7.50;99.90
24252;DHT22;12380;51.118;4.176;2023-02-21T08:04:31;7.50;99.90
24252;DHT22;12380;51.118;4.176;2023-02-21T08:07:01;7.40;99.90
24252;DHT22;12380;51.118;4.176;2023-02-21T08:09:28;7.40;99.90
24252;DHT22;12380;51.118;4.176;2023-02-21T08:11:55;7.40;99.90
24252;DHT22;12380;51.118;4.176;2023-02-21T08:14:21;7.40;99.90
24252;DHT22;12380;51.118;4.176;2023-02-21T08:16:51;7.40;99.90
24252;DHT22;12380;51.118;4.176;2023-02-21T08:19:19;7.50;99.90
24252;DHT22;12380;51.118;4.176;2023-02-21T08:21:47;7.50;99.90
24252;DHT22;12380;51.118;4.176;2023-02-21T08:24:17;7.60;99.90
24252;DHT22;12380;51.118;4.176;2023-02-21T08:26:43;7.50;99.90
24252;DHT22;12380;51.118;4.176;2023-02-21T08:29:13;7.60;99.90
24252;DHT22;12380;51.118;4.176;2023-02-21T08:31:42;7.50;99.90
24252;DHT22;12380;51.118;4.176;2023-02-21T08:34:09;7.50;99.90
24252;DHT22;12380;51.118;4.176;2023-02-21T08:36:37;7.40;99.90
24252;DHT22;12380;51.118;4.176;2023-02-21T08:39:03;7.40;99.90
24252;DHT22;12380;51.118;4.176;2023-02-21T08:44:04;7.40;99.90
24252;DHT22;12380;51.118;4.176;2023-02-21T08:46:33;7.40;99.90
24252;DHT22;12380;51.118;4.176;2023-02-21T08:48:59;7.60;99.90
24252;DHT22;12380;51.118;4.176;2023-02-21T08:51:26;7.60;99.90
24252;DHT22;12380;51.118;4.176;2023-02-21T08:53:53;7.50;99.90
24252;DHT22;12380;51.118;4.176;2023-02-21T08:56:23;7.60;99.90
24252;DHT22;12380;51.118;4.176;2023-02-21T08:58:52;7.60;99.90
24252;DHT22;12380;51.118;4.176;2023-02-21T09:01:21;7.60;99.90
24252;DHT22;12380;51.118;4.176;2023-02-21T09:03:48;7.60;99.90
24252;DHT22;12380;51.118;4.176;2023-02-21T09:06:17;7.60;99.90
24252;DHT22;12380;51.118;4.176;2023-02-21T09:08:45;7.60;99.90
24252;DHT22;12380;51.118;4.176;2023-02-21T09:11:13;7.60;99.90
24252;DHT22;12380;51.118;4.176;2023-02-21T09:13:39;7.40;99.90
24252;DHT22;12380;51.118;4.176;2023-02-21T09:16:06;7.40;99.90
24252;DHT22;12380;51.118;4.176;2023-02-21T09:18:34;7.60;99.90
24252;DHT22;12380;51.118;4.176;2023-02-21T09:20:59;7.70;99.90
24252;DHT22;12380;51.118;4.176;2023-02-21T09:23:28;7.70;99.90
24252;DHT22;12380;51.118;4.176;2023-02-21T09:25:54;7.80;99.90
24252;DHT22;12380;51.118;4.176;2023-02-21T09:28:20;7.80;99.90
24252;DHT22;12380;51.118;4.176;2023-02-21T09:30:46;7.80;99.90
24252;DHT22;12380;51.118;4.176;2023-02-21T09:33:14;8.00;99.90
24252;DHT22;12380;51.118;4.176;2023-02-21T09:35:42;8.00;99.90
24252;DHT22;12380;51.118;4.176;2023-02-21T09:38:08;8.00;99.90
24252;DHT22;12380;51.118;4.176;2023-02-21T09:40:49;8.10;99.90
24252;DHT22;12380;51.118;4.176;2023-02-21T09:43:34;8.10;99.90
24252;DHT22;12380;51.118;4.176;2023-02-21T09:46:08;7.90;99.90
24252;DHT22;12380;51.118;4.176;2023-02-21T09:48:36;8.00;99.90
24252;DHT22;12380;51.118;4.176;2023-02-21T09:51:05;8.00;99.90
24252;DHT22;12380;51.118;4.176;2023-02-21T09:53:36;8.10;99.90
24252;DHT22;12380;51.118;4.176;2023-02-21T09:56:09;8.10;99.90
24252;DHT22;12380;51.118;4.176;2023-02-21T09:58:41;8.00;99.90
24252;DHT22;12380;51.118;4.176;2023-02-21T10:01:41;7.90;99.90
24252;DHT22;12380;51.118;4.176;2023-02-21T10:06:56;7.70;99.90
24252;DHT22;12380;51.118;4.176;2023-02-21T10:09:39;7.90;99.90
24252;DHT22;12380;51.118;4.176;2023-02-21T10:20:04;7.90;99.90
24252;DHT22;12380;51.118;4.176;2023-02-21T10:22:37;8.00;99.90
24252;DHT22;12380;51.118;4.176;2023-02-21T10:27:48;8.20;99.90
24252;DHT22;12380;51.118;4.176;2023-02-21T10:30:28;8.30;99.90
24252;DHT22;12380;51.118;4.176;2023-02-21T10:32:55;8.20;99.90
24252;DHT22;12380;51.118;4.176;2023-02-21T10:35:26;8.20;99.90
24252;DHT22;12380;51.118;4.176;2023-02-21T10:37:57;8.40;99.90
24252;DHT22;12380;51.118;4.176;2023-02-21T10:43:15;8.80;99.90
24252;DHT22;12380;51.118;4.176;2023-02-21T10:48:35;8.80;99.90
24252;DHT22;12380;51.118;4.176;2023-02-21T10:51:07;9.00;99.90
24252;DHT22;12380;51.118;4.176;2023-02-21T10:53:38;8.70;99.90
24252;DHT22;12380;51.118;4.176;2023-02-21T10:58:53;8.30;99.90
24252;DHT22;12380;51.118;4.176;2023-02-21T11:04:05;8.40;99.90
24252;DHT22;12380;51.118;4.176;2023-02-21T11:06:36;8.40;99.90
24252;DHT22;12380;51.118;4.176;2023-02-21T11:12:44;8.30;99.90
24252;DHT22;12380;51.118;4.176;2023-02-21T11:17:21;8.20;99.90
24252;DHT22;12380;51.118;4.176;2023-02-21T11:22:35;8.40;99.90
24252;DHT22;12380;51.118;4.176;2023-02-21T11:25:23;8.60;99.90
24252;DHT22;12380;51.118;4.176;2023-02-21T11:30:49;8.60;99.90
24252;DHT22;12380;51.118;4.176;2023-02-21T11:33:21;8.50;99.90
24252;DHT22;12380;51.118;4.176;2023-02-21T11:35:52;8.40;99.90
24252;DHT22;12380;51.118;4.176;2023-02-21T11:38:43;8.30;99.90
24252;DHT22;12380;51.118;4.176;2023-02-21T11:43:49;8.40;99.90
24252;DHT22;12380;51.118;4.176;2023-02-21T11:49:32;8.40;99.90
24252;DHT22;12380;51.118;4.176;2023-02-21T11:52:21;8.20;99.90
24252;DHT22;12380;51.118;4.176;2023-02-21T11:54:48;8.20;99.90
24252;DHT22;12380;51.118;4.176;2023-02-21T11:57:34;8.20;99.90
24252;DHT22;12380;51.118;4.176;2023-02-21T12:00:23;8.20;99.90
24252;DHT22;12380;51.118;4.176;2023-02-21T12:03:11;8.30;99.90
24252;DHT22;12380;51.118;4.176;2023-02-21T12:08:37;8.30;99.90
24252;DHT22;12380;51.118;4.176;2023-02-21T12:20:05;8.60;99.90
24252;DHT22;12380;51.118;4.176;2023-02-21T12:22:43;8.60;99.90
24252;DHT22;12380;51.118;4.176;2023-02-21T12:25:31;8.60;99.90
24252;DHT22;12380;51.118;4.176;2023-02-21T12:31:02;8.90;99.90
24252;DHT22;12380;51.118;4.176;2023-02-21T12:33:43;9.00;99.90
24252;DHT22;12380;51.118;4.176;2023-02-21T12:42:18;8.50;99.90
24252;DHT22;12380;51.118;4.176;2023-02-21T13:00:35;8.70;99.90
24252;DHT22;12380;51.118;4.176;2023-02-21T13:05:47;8.70;99.90
24252;DHT22;12380;51.118;4.176;2023-02-21T13:13:31;8.90;99.90
24252;DHT22;12380;51.118;4.176;2023-02-21T13:16:00;8.90;99.90
24252;DHT22;12380;51.118;4.176;2023-02-21T13:18:34;9.20;99.90
24252;DHT22;12380;51.118;4.176;2023-02-21T13:26:32;9.70;99.90
24252;DHT22;12380;51.118;4.176;2023-02-21T13:29:01;9.70;99.90
24252;DHT22;12380;51.118;4.176;2023-02-21T13:31:37;9.40;99.90
24252;DHT22;12380;51.118;4.176;2023-02-21T13:34:11;9.40;99.90
24252;DHT22;12380;51.118;4.176;2023-02-21T13:39:17;9.60;99.90
24252;DHT22;12380;51.118;4.176;2023-02-21T13:41:53;9.40;99.90
24252;DHT22;12380;51.118;4.176;2023-02-21T13:44:30;9.30;99.90
24252;DHT22;12380;51.118;4.176;2023-02-21T13:47:16;9.10;99.90
24252;DHT22;12380;51.118;4.176;2023-02-21T13:58:22;9.20;99.90
24252;DHT22;12380;51.118;4.176;2023-02-21T14:08:31;9.20;99.90
24252;DHT22;12380;51.118;4.176;2023-02-21T14:13:49;9.40;99.90
24252;DHT22;12380;51.118;4.176;2023-02-21T14:21:44;9.30;99.90
24252;DHT22;12380;51.118;4.176;2023-02-21T14:24:35;9.20;99.90
24252;DHT22;12380;51.118;4.176;2023-02-21T14:38:14;9.40;99.90
24252;DHT22;12380;51.118;4.176;2023-02-21T14:40:45;9.50;99.90
24252;DHT22;12380;51.118;4.176;2023-02-21T14:49:14;9.40;99.90
24252;DHT22;12380;51.118;4.176;2023-02-21T14:54:28;9.30;99.90
24252;DHT22;12380;51.118;4.176;2023-02-21T15:02:55;9.00;99.90
24252;DHT22;12380;51.118;4.176;2023-02-21T15:07:57;9.10;99.90
24252;DHT22;12380;51.118;4.176;2023-02-21T15:13:04;9.10;99.90
24252;DHT22;12380;51.118;4.176;2023-02-21T15:21:07;9.20;99.90
24252;DHT22;12380;51.118;4.176;2023-02-21T15:23:47;9.10;99.90
24252;DHT22;12380;51.118;4.176;2023-02-21T15:26:23;9.20;99.90
24252;DHT22;12380;51.118;4.176;2023-02-21T15:31:54;9.20;99.90
24252;DHT22;12380;51.118;4.176;2023-02-21T15:34:51;9.20;99.90
24252;DHT22;12380;51.118;4.176;2023-02-21T15:37:27;9.20;99.90
24252;DHT22;12380;51.118;4.176;2023-02-21T15:40:00;9.20;99.90
24252;DHT22;12380;51.118;4.176;2023-02-21T15:42:29;9.30;99.90
24252;DHT22;12380;51.118;4.176;2023-02-21T15:44:58;9.20;99.90
24252;DHT22;12380;51.118;4.176;2023-02-21T15:47:32;9.10;99.90
24252;DHT22;12380;51.118;4.176;2023-02-21T15:50:16;9.20;99.90
24252;DHT22;12380;51.118;4.176;2023-02-21T15:52:47;9.50;99.90
24252;DHT22;12380;51.118;4.176;2023-02-21T15:58:01;9.40;99.90
24252;DHT22;12380;51.118;4.176;2023-02-21T16:00:29;9.40;99.90
24252;DHT22;12380;51.118;4.176;2023-02-21T16:06:34;9.50;99.90
24252;DHT22;12380;51.118;4.176;2023-02-21T16:11:26;9.20;99.90
24252;DHT22;12380;51.118;4.176;2023-02-21T16:14:02;9.30;99.90
24252;DHT22;12380;51.118;4.176;2023-02-21T16:16:36;9.20;99.90
24252;DHT22;12380;51.118;4.176;2023-02-21T16:19:02;9.10;99.90
24252;DHT22;12380;51.118;4.176;2023-02-21T16:21:28;9.20;99.90
24252;DHT22;12380;51.118;4.176;2023-02-21T16:23:56;9.10;99.90
24252;DHT22;12380;51.118;4.176;2023-02-21T16:26:38;9.20;99.90
24252;DHT22;12380;51.118;4.176;2023-02-21T16:29:06;9.20;99.90
24252;DHT22;12380;51.118;4.176;2023-02-21T16:31:33;9.30;99.90
24252;DHT22;12380;51.118;4.176;2023-02-21T16:34:03;9.10;99.90
24252;DHT22;12380;51.118;4.176;2023-02-21T16:36:33;9.10;99.90
24252;DHT22;12380;51.118;4.176;2023-02-21T16:39:02;8.90;99.90
24252;DHT22;12380;51.118;4.176;2023-02-21T16:41:29;8.80;99.90
24252;DHT22;12380;51.118;4.176;2023-02-21T16:43:55;8.90;99.90
24252;DHT22;12380;51.118;4.176;2023-02-21T16:46:25;8.90;99.90
24252;DHT22;12380;51.118;4.176;2023-02-21T16:48:53;9.10;99.90
24252;DHT22;12380;51.118;4.176;2023-02-21T16:51:19;9.00;99.90
24252;DHT22;12380;51.118;4.176;2023-02-21T16:53:45;8.80;99.90
24252;DHT22;12380;51.118;4.176;2023-02-21T16:56:14;8.60;99.90
24252;DHT22;12380;51.118;4.176;2023-02-21T16:58:46;8.60;99.90
24252;DHT22;12380;51.118;4.176;2023-02-21T17:01:14;8.50;99.90
24252;DHT22;12380;51.118;4.176;2023-02-21T17:03:41;8.50;99.90
24252;DHT22;12380;51.118;4.176;2023-02-21T17:06:15;8.70;99.90
24252;DHT22;12380;51.118;4.176;2023-02-21T17:08:41;8.80;99.90
24252;DHT22;12380;51.118;4.176;2023-02-21T17:11:07;8.80;99.90
24252;DHT22;12380;51.118;4.176;2023-02-21T17:13:32;8.90;99.90
24252;DHT22;12380;51.118;4.176;2023-02-21T17:15:58;8.90;99.90
24252;DHT22;12380;51.118;4.176;2023-02-21T17:18:24;9.00;99.90
24252;DHT22;12380;51.118;4.176;2023-02-21T17:20:50;8.70;99.90
24252;DHT22;12380;51.118;4.176;2023-02-21T17:23:16;8.60;99.90
24252;DHT22;12380;51.118;4.176;2023-02-21T17:25:43;8.50;99.90
24252;DHT22;12380;51.118;4.176;2023-02-21T17:28:08;8.60;99.90
24252;DHT22;12380;51.118;4.176;2023-02-21T17:30:34;8.50;99.90
24252;DHT22;12380;51.118;4.176;2023-02-21T17:33:00;8.40;99.90
24252;DHT22;12380;51.118;4.176;2023-02-21T17:35:31;8.40;99.90
24252;DHT22;12380;51.118;4.176;2023-02-21T17:37:56;8.40;99.90
24252;DHT22;12380;51.118;4.176;2023-02-21T17:40:26;8.30;99.90
24252;DHT22;12380;51.118;4.176;2023-02-21T17:42:52;8.40;99.90
24252;DHT22;12380;51.118;4.176;2023-02-21T17:45:19;8.40;99.90
24252;DHT22;12380;51.118;4.176;2023-02-21T17:47:46;8.40;99.90
24252;DHT22;12380;51.118;4.176;2023-02-21T17:50:12;8.40;99.90
24252;DHT22;12380;51.118;4.176;2023-02-21T17:52:41;8.20;99.90
24252;DHT22;12380;51.118;4.176;2023-02-21T17:55:08;8.20;99.90
24252;DHT22;12380;51.118;4.176;2023-02-21T17:57:36;8.20;99.90
24252;DHT22;12380;51.118;4.176;2023-02-21T18:00:07;8.10;99.90
24252;DHT22;12380;51.118;4.176;2023-02-21T18:02:37;8.20;99.90
24252;DHT22;12380;51.118;4.176;2023-02-21T18:05:03;8.40;99.90
24252;DHT22;12380;51.118;4.176;2023-02-21T18:07:29;8.30;99.90
24252;DHT22;12380;51.118;4.176;2023-02-21T18:10:04;8.30;99.90
24252;DHT22;12380;51.118;4.176;2023-02-21T18:12:32;8.30;99.90
24252;DHT22;12380;51.118;4.176;2023-02-21T18:15:03;8.10;99.90
24252;DHT22;12380;51.118;4.176;2023-02-21T18:17:31;8.10;99.90
24252;DHT22;12380;51.118;4.176;2023-02-21T18:19:59;8.10;99.90
24252;DHT22;12380;51.118;4.176;2023-02-21T18:22:27;8.30;99.90
24252;DHT22;12380;51.118;4.176;2023-02-21T18:24:53;8.40;99.90
24252;DHT22;12380;51.118;4.176;2023-02-21T18:27:19;8.50;99.90
24252;DHT22;12380;51.118;4.176;2023-02-21T18:29:44;8.20;99.90
24252;DHT22;12380;51.118;4.176;2023-02-21T18:32:12;8.00;99.90
24252;DHT22;12380;51.118;4.176;2023-02-21T18:34:38;8.00;99.90
24252;DHT22;12380;51.118;4.176;2023-02-21T18:37:06;7.90;99.90
24252;DHT22;12380;51.118;4.176;2023-02-21T18:39:32;8.20;99.90
24252;DHT22;12380;51.118;4.176;2023-02-21T18:41:58;8.20;99.90
24252;DHT22;12380;51.118;4.176;2023-02-21T18:44:23;8.20;99.90
24252;DHT22;12380;51.118;4.176;2023-02-21T18:46:53;8.10;99.90
24252;DHT22;12380;51.118;4.176;2023-02-21T18:49:23;8.00;99.90
24252;DHT22;12380;51.118;4.176;2023-02-21T18:51:49;8.00;99.90
24252;DHT22;12380;51.118;4.176;2023-02-21T18:54:15;7.90;99.90
24252;DHT22;12380;51.118;4.176;2023-02-21T18:56:49;7.80;99.90
24252;DHT22;12380;51.118;4.176;2023-02-21T18:59:20;7.80;99.90
24252;DHT22;12380;51.118;4.176;2023-02-21T19:01:50;7.70;99.90
24252;DHT22;12380;51.118;4.176;2023-02-21T19:04:16;7.70;99.90
24252;DHT22;12380;51.118;4.176;2023-02-21T19:06:45;7.60;99.90
24252;DHT22;12380;51.118;4.176;2023-02-21T19:09:11;7.50;99.90
24252;DHT22;12380;51.118;4.176;2023-02-21T19:11:36;7.40;99.90
24252;DHT22;12380;51.118;4.176;2023-02-21T19:14:08;7.40;99.90
24252;DHT22;12380;51.118;4.176;2023-02-21T19:16:34;7.40;99.90
24252;DHT22;12380;51.118;4.176;2023-02-21T19:19:00;7.40;99.90
24252;DHT22;12380;51.118;4.176;2023-02-21T19:21:29;7.30;99.90
24252;DHT22;12380;51.118;4.176;2023-02-21T19:23:54;7.20;99.90
24252;DHT22;12380;51.118;4.176;2023-02-21T19:26:22;7.40;99.90
24252;DHT22;12380;51.118;4.176;2023-02-21T19:28:51;7.40;99.90
24252;DHT22;12380;51.118;4.176;2023-02-21T19:31:18;7.50;99.90
24252;DHT22;12380;51.118;4.176;2023-02-21T19:33:44;7.50;99.90
24252;DHT22;12380;51.118;4.176;2023-02-21T19:36:10;7.40;99.90
24252;DHT22;12380;51.118;4.176;2023-02-21T19:38:36;7.40;99.90
24252;DHT22;12380;51.118;4.176;2023-02-21T19:41:06;7.60;99.90